Time;durP1;ratioP1;P1;durP2;ratioP2;P2;SDS_P1;SDS_P2;PMS_P1;PMS_P2;Temp;Humidity;BMP_temperature;BMP_pressure;BME280_temperature;BME280_humidity;BME280_pressure;Samples;Min_cycle;Max_cycle;Signal;HPM_P1;HPM_P2
2023/09/24 00:01:03;;;;;;;2.75;1.48;;;;;;;12.30;97.18;101796.25;5031258;28;20116;-68
2023/09/24 00:03:29;;;;;;;7.00;1.80;;;;;;;12.23;97.43;101808.31;5024725;28;20044;-68
2023/09/24 00:05:54;;;;;;;1.88;1.38;;;;;;;12.18;97.65;101798.81;5030011;28;20134;-68
2023/09/24 00:08:20;;;;;;;3.40;1.60;;;;;;;12.14;97.99;101810.06;5028396;28;20052;-68
2023/09/24 00:10:52;;;;;;;4.40;1.88;;;;;;;12.11;98.08;101808.31;5030000;28;20042;-68
2023/09/24 00:13:22;;;;;;;3.78;1.50;;;;;;;12.08;98.62;101812.63;5032549;28;20039;-68
2023/09/24 00:15:49;;;;;;;5.68;2.03;;;;;;;12.04;99.04;101803.97;5030408;28;20094;-68
2023/09/24 00:18:15;;;;;;;3.03;1.48;;;;;;;12.00;99.10;101815.19;5031892;28;20021;-68
2023/09/24 00:20:41;;;;;;;4.05;1.42;;;;;;;12.00;99.27;101819.50;5034004;28;20559;-68
2023/09/24 00:23:08;;;;;;;4.70;2.15;;;;;;;11.96;99.45;101812.59;5033621;28;20742;-68
2023/09/24 00:25:33;;;;;;;5.22;2.10;;;;;;;11.93;99.72;101816.03;5023662;28;20657;-69
2023/09/24 00:27:58;;;;;;;3.28;1.33;;;;;;;11.89;99.58;101819.50;5039041;28;20041;-69
2023/09/24 00:30:24;;;;;;;4.32;1.65;;;;;;;11.81;100.00;101821.19;5029685;28;20047;-69
2023/09/24 00:32:51;;;;;;;6.60;2.17;;;;;;;11.77;100.00;101825.50;5026849;28;20087;-68
2023/09/24 00:35:16;;;;;;;3.03;1.77;;;;;;;11.70;100.00;101821.13;5032117;28;20128;-69
2023/09/24 00:37:42;;;;;;;4.47;2.05;;;;;;;11.66;100.00;101818.56;5037565;28;20136;-69
2023/09/24 00:40:10;;;;;;;4.80;2.10;;;;;;;11.60;100.00;101821.97;5030558;28;20349;-68
2023/09/24 00:42:36;;;;;;;6.97;1.70;;;;;;;11.57;100.00;101826.28;5034121;28;20029;-67
2023/09/24 00:45:03;;;;;;;5.97;1.75;;;;;;;11.53;100.00;101827.97;5028748;28;20036;-68
2023/09/24 00:47:29;;;;;;;5.75;1.55;;;;;;;11.49;100.00;101825.34;5035909;28;20136;-68
2023/09/24 00:49:54;;;;;;;4.72;1.65;;;;;;;11.47;100.00;101832.25;5024693;28;20136;-68
2023/09/24 00:52:21;;;;;;;4.07;1.88;;;;;;;11.43;100.00;101831.38;5023296;28;20037;-68
2023/09/24 00:54:46;;;;;;;4.18;1.70;;;;;;;11.35;100.00;101833.91;5027908;28;20507;-67
2023/09/24 00:57:12;;;;;;;3.00;1.70;;;;;;;11.28;100.00;101841.59;5028978;28;20100;-68
2023/09/24 00:59:38;;;;;;;3.03;1.60;;;;;;;11.22;100.00;101837.25;5029397;28;20048;-68
2023/09/24 01:02:03;;;;;;;3.40;2.08;;;;;;;11.19;100.00;101841.53;5028518;28;20029;-68
2023/09/24 01:04:29;;;;;;;3.53;1.98;;;;;;;11.16;100.00;101839.81;5029047;28;20088;-68
2023/09/24 01:06:55;;;;;;;3.90;1.70;;;;;;;11.14;100.00;101838.94;5028870;28;20036;-68
2023/09/24 01:09:20;;;;;;;3.30;1.40;;;;;;;11.13;100.00;101838.91;5031025;28;20438;-68
2023/09/24 01:11:49;;;;;;;7.30;1.90;;;;;;;11.11;100.00;101844.09;5026843;28;20064;-68
2023/09/24 01:14:15;;;;;;;8.32;2.70;;;;;;;11.08;100.00;101840.63;5032742;28;20072;-68
2023/09/24 01:16:40;;;;;;;3.88;1.70;;;;;;;11.08;100.00;101841.50;5030835;28;20655;-68
2023/09/24 01:19:05;;;;;;;3.60;1.90;;;;;;;11.06;100.00;101842.34;5034463;28;20044;-68
2023/09/24 01:21:31;;;;;;;5.03;2.00;;;;;;;10.99;100.00;101846.59;5031128;28;20095;-68
2023/09/24 01:23:59;;;;;;;5.63;1.35;;;;;;;10.96;100.00;101851.75;5038694;28;20037;-68
2023/09/24 01:26:25;;;;;;;6.18;2.08;;;;;;;10.96;100.00;101851.75;5041863;28;20029;-68
2023/09/24 01:28:51;;;;;;;3.67;1.42;;;;;;;10.93;100.00;101864.66;5032926;28;20035;-70
2023/09/24 01:31:18;;;;;;;2.42;1.58;;;;;;;10.90;100.00;101858.59;5040347;28;20029;-68
2023/09/24 01:33:44;;;;;;;3.45;1.85;;;;;;;10.86;100.00;101862.88;5042352;28;20666;-68
2023/09/24 01:36:10;;;;;;;3.67;1.80;;;;;;;10.84;100.00;101864.59;5035782;28;20130;-68
2023/09/24 01:38:40;;;;;;;5.07;1.92;;;;;;;10.81;100.00;101874.91;5038575;28;20059;-68
2023/09/24 01:41:09;;;;;;;4.65;1.60;;;;;;;10.74;100.00;101873.97;5034724;28;20065;-68
2023/09/24 01:43:35;;;;;;;3.67;1.70;;;;;;;10.68;100.00;101873.94;5027747;28;20037;-68
2023/09/24 01:46:05;;;;;;;4.38;1.70;;;;;;;10.66;100.00;101877.34;5029657;28;20404;-68
2023/09/24 01:48:31;;;;;;;3.85;1.83;;;;;;;10.65;100.00;101880.81;5037966;28;20029;-68
2023/09/24 01:50:56;;;;;;;4.75;1.50;;;;;;;10.63;100.00;101885.97;5030818;28;20111;-68
2023/09/24 01:53:22;;;;;;;5.60;2.17;;;;;;;10.61;100.00;101874.75;5034211;28;20507;-68
2023/09/24 01:55:47;;;;;;;3.70;1.55;;;;;;;10.60;100.00;101879.88;5031474;28;20488;-68
2023/09/24 01:58:13;;;;;;;5.95;1.80;;;;;;;10.58;100.00;101879.00;5032542;28;20045;-68
2023/09/24 02:00:39;;;;;;;7.03;1.80;;;;;;;10.58;100.00;101879.88;5034186;28;20060;-68
2023/09/24 02:03:10;;;;;;;3.70;1.83;;;;;;;10.56;100.00;101881.59;5033911;28;20068;-68
2023/09/24 02:05:38;;;;;;;3.72;1.60;;;;;;;10.55;100.00;101884.16;5027310;28;20036;-68
2023/09/24 02:08:08;;;;;;;3.63;2.00;;;;;;;10.50;100.00;101884.13;5033824;28;20038;-68
2023/09/24 02:10:38;;;;;;;6.93;2.42;;;;;;;10.48;100.00;101878.06;5027180;28;20496;-68
2023/09/24 02:13:04;;;;;;;7.50;2.20;;;;;;;10.47;100.00;101875.47;5027424;28;20087;-68
2023/09/24 02:15:29;;;;;;;4.35;1.67;;;;;;;10.45;100.00;101869.41;5028400;28;20025;-68
2023/09/24 02:17:54;;;;;;;5.13;1.83;;;;;;;10.44;100.00;101880.63;5029157;28;20030;-68
2023/09/24 02:22:58;;;;;;;;;;;;;;;10.45;100.00;101879.75;5032692;28;20462;-68
2023/09/24 02:25:25;;;;;;;4.28;1.80;;;;;;;10.44;100.00;101875.44;5032794;28;19917;-68
2023/09/24 02:27:51;;;;;;;6.43;1.95;;;;;;;10.43;100.00;101876.28;5031095;28;20133;-69
2023/09/24 02:30:18;;;;;;;3.75;1.70;;;;;;;10.41;100.00;101878.88;5034243;28;20274;-68
2023/09/24 02:32:44;;;;;;;3.55;2.10;;;;;;;10.42;100.00;101880.56;5024417;28;20484;-68
2023/09/24 02:35:11;;;;;;;3.63;1.70;;;;;;;10.42;100.00;101885.75;5033664;28;20047;-68
2023/09/24 02:37:40;;;;;;;2.33;1.70;;;;;;;10.43;100.00;101895.25;5026428;28;20033;-68
2023/09/24 02:40:27;;;;;;;3.40;1.90;;;;;;;10.44;100.00;101884.06;5037171;28;20052;-68
2023/09/24 02:42:57;;;;;;;4.65;1.95;;;;;;;10.45;100.00;101887.50;5028272;28;20038;-68
2023/09/24 02:45:24;;;;;;;6.75;2.00;;;;;;;10.44;100.00;101886.66;5028057;28;20048;-68
2023/09/24 02:47:50;;;;;;;2.17;1.67;;;;;;;10.43;100.00;101886.63;5031070;28;20041;-68
2023/09/24 02:50:25;;;;;;;5.70;2.47;;;;;;;10.42;100.00;101890.03;5028786;28;20563;-68
2023/09/24 02:52:58;;;;;;;4.47;2.05;;;;;;;10.41;100.00;101888.34;5040844;28;20037;-68
2023/09/24 02:55:28;;;;;;;3.45;1.70;;;;;;;10.41;100.00;101889.22;5030674;28;20033;-68
2023/09/24 02:57:53;;;;;;;4.15;2.10;;;;;;;10.40;100.00;101889.19;5031161;28;20463;-68
2023/09/24 03:00:26;;;;;;;2.70;1.55;;;;;;;10.39;100.00;101896.06;5040097;28;20109;-68
2023/09/24 03:02:53;;;;;;;5.72;2.00;;;;;;;10.37;100.00;101895.19;5026347;28;20488;-69
2023/09/24 03:05:24;;;;;;;3.92;1.88;;;;;;;10.36;100.00;101889.97;5035154;28;20072;-68
2023/09/24 03:07:50;;;;;;;5.45;1.98;;;;;;;10.34;100.00;101892.56;5031912;28;20065;-68
2023/09/24 03:10:16;;;;;;;3.20;1.60;;;;;;;10.32;100.00;101901.16;5036986;28;20504;-68
2023/09/24 03:12:42;;;;;;;3.55;1.77;;;;;;;10.29;100.00;101899.41;5029841;28;20041;-68
2023/09/24 03:15:10;;;;;;;4.75;1.63;;;;;;;10.29;100.00;101901.13;5035523;28;20047;-68
2023/09/24 03:17:35;;;;;;;6.93;1.92;;;;;;;10.27;100.00;101902.84;5025456;28;21377;-68
2023/09/24 03:20:04;;;;;;;5.07;1.98;;;;;;;10.23;100.00;101900.22;5029429;28;20041;-68
2023/09/24 03:22:30;;;;;;;4.97;1.98;;;;;;;10.20;100.00;101910.53;5029875;28;20041;-67
2023/09/24 03:24:57;;;;;;;5.93;2.10;;;;;;;10.19;100.00;101906.19;5035954;28;20021;-68
2023/09/24 03:27:22;;;;;;;4.97;1.83;;;;;;;10.17;100.00;101923.41;5031443;28;20037;-68
2023/09/24 03:29:48;;;;;;;4.53;2.60;;;;;;;10.14;100.00;101923.38;5035697;28;20522;-68
2023/09/24 03:32:14;;;;;;;4.97;1.90;;;;;;;10.10;100.00;101923.28;5033619;28;20068;-68
2023/09/24 03:34:40;;;;;;;2.47;1.67;;;;;;;10.07;100.00;101926.72;5030521;28;20487;-68
2023/09/24 03:37:09;;;;;;;4.47;2.17;;;;;;;10.05;100.00;101920.66;5032369;28;20046;-68
2023/09/24 03:39:35;;;;;;;5.82;1.50;;;;;;;10.02;100.00;101917.19;5028056;28;20037;-68
2023/09/24 03:42:00;;;;;;;3.30;1.90;;;;;;;10.00;100.00;101932.63;5031331;28;20553;-67
2023/09/24 03:44:25;;;;;;;3.85;1.70;;;;;;;9.98;100.00;101924.00;5030455;28;20045;-68
2023/09/24 03:46:51;;;;;;;4.90;1.80;;;;;;;9.96;100.00;101936.06;5031690;28;20057;-68
2023/09/24 03:49:16;;;;;;;5.35;2.33;;;;;;;9.93;100.00;101930.84;5028601;28;20060;-68
2023/09/24 03:51:41;;;;;;;7.57;2.35;;;;;;;9.88;100.00;101927.31;5026929;28;20040;-68
2023/09/24 03:54:07;;;;;;;5.38;2.35;;;;;;;9.86;100.00;101933.31;5030036;28;20033;-68
2023/09/24 03:56:32;;;;;;;4.10;2.10;;;;;;;9.83;100.00;101938.44;5030416;28;20366;-68
2023/09/24 03:58:57;;;;;;;3.47;1.75;;;;;;;9.78;100.00;101942.69;5031117;28;20140;-68
2023/09/24 04:01:23;;;;;;;4.07;2.13;;;;;;;9.75;100.00;101938.34;5027967;28;20117;-68
2023/09/24 04:03:49;;;;;;;3.85;1.92;;;;;;;9.73;100.00;101936.59;5029580;28;20034;-67
2023/09/24 04:06:16;;;;;;;2.58;1.70;;;;;;;9.71;100.00;101941.72;5030934;28;20438;-68
2023/09/24 04:08:42;;;;;;;3.33;1.73;;;;;;;9.70;100.00;101944.28;5029765;28;20041;-68
2023/09/24 04:11:10;;;;;;;3.30;2.03;;;;;;;9.67;100.00;101951.13;5032390;28;20037;-68
2023/09/24 04:13:35;;;;;;;2.80;1.70;;;;;;;9.63;100.00;101951.94;5024324;28;20037;-68
2023/09/24 04:16:14;;;;;;;2.92;1.92;;;;;;;9.59;100.00;101952.75;5028995;28;20128;-68
2023/09/24 04:18:41;;;;;;;4.95;2.03;;;;;;;9.54;100.00;101961.22;5029765;28;20096;-68
2023/09/24 04:21:32;;;;;;;3.97;2.17;;;;;;;9.53;100.00;101956.91;5032649;28;20029;-68
2023/09/24 04:23:58;;;;;;;5.25;1.73;;;;;;;9.51;100.00;101956.03;5024764;28;20488;-68
2023/09/24 04:26:24;;;;;;;7.38;2.42;;;;;;;9.47;100.00;101961.97;5033754;28;20041;-67
2023/09/24 04:28:51;;;;;;;4.50;2.35;;;;;;;9.46;100.00;101968.88;5036127;28;20038;-68
2023/09/24 04:31:17;;;;;;;4.70;2.20;;;;;;;9.43;100.00;101960.22;5032256;28;20045;-68
2023/09/24 04:33:44;;;;;;;5.20;2.10;;;;;;;9.42;100.00;101971.38;5030527;28;20033;-67
2023/09/24 04:36:09;;;;;;;3.95;2.17;;;;;;;9.42;100.00;101968.78;5032784;28;20072;-68
2023/09/24 04:38:36;;;;;;;6.00;2.70;;;;;;;9.44;100.00;101978.28;5023073;28;20111;-68
2023/09/24 04:41:05;;;;;;;7.57;2.80;;;;;;;9.48;100.00;101986.94;5029772;28;20152;-68
2023/09/24 04:43:30;;;;;;;4.22;2.55;;;;;;;9.44;100.00;101975.72;5029627;28;20117;-68
2023/09/24 04:45:55;;;;;;;4.40;2.40;;;;;;;9.46;100.00;101986.06;5025086;28;20562;-68
2023/09/24 04:48:21;;;;;;;4.07;2.28;;;;;;;9.47;100.00;101980.03;5026664;28;20060;-68
2023/09/24 04:50:46;;;;;;;7.50;2.75;;;;;;;9.45;100.00;101985.19;5033737;28;20300;-68
2023/09/24 04:53:11;;;;;;;4.80;2.75;;;;;;;9.46;100.00;101983.50;5027404;28;20044;-68
2023/09/24 04:55:37;;;;;;;5.32;3.00;;;;;;;9.46;100.00;101983.50;5033530;28;20124;-68
2023/09/24 04:58:02;;;;;;;4.13;2.80;;;;;;;9.45;100.00;101992.94;5035203;28;20431;-68
2023/09/24 05:00:28;;;;;;;4.65;2.45;;;;;;;9.47;100.00;101990.38;5034645;28;20060;-68
2023/09/24 05:02:53;;;;;;;8.40;3.47;;;;;;;9.51;100.00;101987.00;5030376;28;20833;-68
2023/09/24 05:05:19;;;;;;;6.78;3.22;;;;;;;9.50;100.00;102004.19;5038435;28;20028;-68
2023/09/24 05:07:44;;;;;;;5.75;2.97;;;;;;;9.50;100.00;102000.72;5033388;28;20044;-68
2023/09/24 05:10:10;;;;;;;10.30;4.65;;;;;;;9.51;100.00;102008.53;5038248;28;20068;-68
2023/09/24 05:12:35;;;;;;;3.33;2.63;;;;;;;9.50;100.00;102013.63;5029760;28;20132;-68
2023/09/24 05:15:01;;;;;;;7.32;3.53;;;;;;;9.50;100.00;102009.34;5030758;28;20500;-68
2023/09/24 05:17:27;;;;;;;5.70;3.40;;;;;;;9.53;100.00;102018.84;5034109;28;20043;-68
2023/09/24 05:19:52;;;;;;;5.35;3.50;;;;;;;9.53;100.00;102027.47;5027678;28;20037;-68
2023/09/24 05:22:18;;;;;;;5.53;3.50;;;;;;;9.53;100.00;102024.00;5035159;28;20044;-68
2023/09/24 05:24:43;;;;;;;5.03;3.33;;;;;;;9.54;100.00;102025.75;5029415;28;20134;-68
2023/09/24 05:27:09;;;;;;;5.55;3.38;;;;;;;9.54;100.00;102025.75;5033230;28;20033;-68
2023/09/24 05:29:34;;;;;;;8.60;3.33;;;;;;;9.53;100.00;102032.63;5033043;28;20044;-68
2023/09/24 05:32:01;;;;;;;6.38;4.03;;;;;;;9.54;100.00;102033.50;5033454;28;20049;-68
2023/09/24 05:34:27;;;;;;;5.82;3.42;;;;;;;9.55;100.00;102035.25;5033053;28;20045;-68
2023/09/24 05:36:52;;;;;;;10.07;3.22;;;;;;;9.56;100.00;102036.97;5035983;28;20063;-68
2023/09/24 05:39:18;;;;;;;4.70;3.28;;;;;;;9.58;100.00;102037.91;5035715;28;20556;-61
2023/09/24 05:41:44;;;;;;;5.90;3.40;;;;;;;9.59;100.00;102037.06;5030867;28;20038;-61
2023/09/24 05:44:09;;;;;;;4.50;3.28;;;;;;;9.58;100.00;102040.50;5032252;28;20749;-61
2023/09/24 05:46:34;;;;;;;6.60;3.35;;;;;;;9.57;100.00;102043.88;5030396;28;20042;-63
2023/09/24 05:49:00;;;;;;;4.93;3.28;;;;;;;9.55;100.00;102043.88;5038326;28;20611;-68
2023/09/24 05:51:25;;;;;;;9.05;3.33;;;;;;;9.56;100.00;102053.31;5028435;28;20061;-63
2023/09/24 05:53:52;;;;;;;5.85;2.92;;;;;;;9.57;100.00;102055.09;5024683;28;20037;-61
2023/09/24 05:56:18;;;;;;;4.78;3.38;;;;;;;9.58;100.00;102043.91;5034806;28;20411;-61
2023/09/24 05:58:44;;;;;;;5.18;2.72;;;;;;;9.60;100.00;102050.00;5029064;28;20045;-61
2023/09/24 06:01:15;;;;;;;7.32;3.50;;;;;;;9.61;100.00;102040.56;5031953;28;20029;-61
2023/09/24 06:03:41;;;;;;;5.82;3.10;;;;;;;9.62;100.00;102048.31;5027610;28;20075;-61
2023/09/24 06:06:10;;;;;;;4.55;3.05;;;;;;;9.65;100.00;102042.31;5033950;28;20385;-61
2023/09/24 06:08:37;;;;;;;4.47;3.38;;;;;;;9.70;100.00;102052.72;5027356;28;20523;-62
2023/09/24 06:11:03;;;;;;;7.93;3.13;;;;;;;9.72;100.00;102051.91;5033880;28;20389;-62
2023/09/24 06:13:28;;;;;;;5.63;3.28;;;;;;;9.74;100.00;102060.53;5031649;28;20043;-62
2023/09/24 06:16:00;;;;;;;6.57;3.33;;;;;;;9.79;100.00;102068.38;5030398;28;20065;-68
2023/09/24 06:18:26;;;;;;;6.10;3.05;;;;;;;9.83;100.00;102068.41;5035074;28;20033;-69
2023/09/24 06:20:51;;;;;;;7.28;3.38;;;;;;;9.91;100.00;102074.56;5035188;28;20385;-68
2023/09/24 06:23:17;;;;;;;5.65;3.28;;;;;;;9.99;100.00;102079.84;5033763;28;20512;-68
2023/09/24 06:25:43;;;;;;;6.95;3.10;;;;;;;10.04;100.00;102092.00;5030007;28;20090;-68
2023/09/24 06:28:11;;;;;;;7.15;3.80;;;;;;;10.12;100.00;102087.78;5033150;28;20045;-68
2023/09/24 06:30:38;;;;;;;10.15;4.25;;;;;;;10.21;100.00;102094.81;5032412;28;20124;-69
2023/09/24 06:33:04;;;;;;;9.70;4.07;;;;;;;10.30;100.00;102100.09;5039860;28;20045;-69
2023/09/24 06:35:30;;;;;;;5.45;3.20;;;;;;;10.42;100.00;102109.75;5032370;28;20033;-68
2023/09/24 06:37:55;;;;;;;7.43;3.08;;;;;;;10.51;100.00;102110.75;5030912;28;20037;-68
2023/09/24 06:40:20;;;;;;;6.10;3.58;;;;;;;10.61;100.00;102109.16;5032768;28;20524;-68
2023/09/24 06:42:47;;;;;;;7.75;4.13;;;;;;;10.70;100.00;102106.69;5032313;28;20029;-68
2023/09/24 06:45:12;;;;;;;6.75;3.78;;;;;;;10.82;100.00;102105.97;5035736;28;20041;-68
2023/09/24 06:47:37;;;;;;;8.48;3.88;;;;;;;10.93;100.00;102110.41;5038272;28;20524;-68
2023/09/24 06:50:03;;;;;;;8.88;4.03;;;;;;;10.99;100.00;102097.53;5031789;28;20491;-68
2023/09/24 06:52:31;;;;;;;6.60;3.42;;;;;;;11.11;100.00;102102.84;5029482;28;20431;-68
2023/09/24 06:54:56;;;;;;;6.25;3.70;;;;;;;11.19;100.00;102102.94;5033297;28;20029;-68
2023/09/24 06:57:22;;;;;;;6.13;3.60;;;;;;;11.24;100.00;102103.88;5036655;28;20797;-68
2023/09/24 06:59:47;;;;;;;7.43;4.05;;;;;;;11.32;100.00;102100.50;5032022;28;20515;-61
2023/09/24 07:02:15;;;;;;;5.15;3.22;;;;;;;11.43;100.00;102108.38;5033197;28;20037;-61
2023/09/24 07:04:40;;;;;;;6.45;3.17;;;;;;;11.53;100.00;102112.81;5028897;28;20042;-61
2023/09/24 07:07:07;;;;;;;6.63;3.40;;;;;;;11.60;100.00;102116.31;5030276;28;20029;-61
2023/09/24 07:09:33;;;;;;;5.15;2.97;;;;;;;11.68;100.00;102117.25;5031875;28;20032;-61
2023/09/24 07:11:58;;;;;;;4.72;3.00;;;;;;;11.71;100.00;102107.78;5031259;28;20653;-61
2023/09/24 07:14:24;;;;;;;5.03;3.08;;;;;;;11.83;100.00;102120.84;5028780;28;20100;-63
2023/09/24 07:16:49;;;;;;;4.55;2.88;;;;;;;11.94;100.00;102109.69;5036377;28;20083;-65
2023/09/24 07:19:14;;;;;;;8.38;2.80;;;;;;;12.02;100.00;102111.47;5026058;28;20042;-64
2023/09/24 07:21:40;;;;;;;4.85;2.58;;;;;;;12.12;100.00;102117.59;5027861;28;20033;-63
2023/09/24 07:24:06;;;;;;;4.03;2.80;;;;;;;12.21;100.00;102117.66;5038391;28;20040;-64
2023/09/24 07:26:31;;;;;;;10.00;3.05;;;;;;;12.31;100.00;102117.75;5029685;28;20045;-65
2023/09/24 07:28:57;;;;;;;7.60;2.50;;;;;;;12.40;100.00;102119.50;5031608;28;20100;-64
2023/09/24 07:31:25;;;;;;;5.05;2.47;;;;;;;12.43;100.00;102117.78;5032816;28;20033;-64
2023/09/24 07:33:52;;;;;;;6.50;2.88;;;;;;;12.53;100.00;102120.44;5022004;28;20036;-65
2023/09/24 07:36:19;;;;;;;2.92;2.13;;;;;;;12.60;100.00;102123.06;5034223;28;20024;-65
2023/09/24 07:38:44;;;;;;;4.25;2.75;;;;;;;12.64;100.00;102119.66;5027932;28;20843;-64
2023/09/24 07:41:11;;;;;;;4.80;2.20;;;;;;;12.73;100.00;102127.44;5032448;28;20120;-65
2023/09/24 07:43:42;;;;;;;8.65;2.50;;;;;;;12.83;98.52;102123.16;5030360;28;20044;-65
2023/09/24 07:46:12;;;;;;;4.88;2.72;;;;;;;12.95;96.39;102118.91;5025333;28;20037;-64
2023/09/24 07:48:38;;;;;;;4.47;2.20;;;;;;;13.03;95.81;102118.94;5027773;28;20120;-64
2023/09/24 07:51:03;;;;;;;4.97;2.13;;;;;;;13.12;95.94;102125.91;5031428;28;20105;-65
2023/09/24 07:53:28;;;;;;;5.65;2.53;;;;;;;13.18;95.85;102126.78;5028800;28;20488;-65
2023/09/24 07:55:58;;;;;;;5.07;2.22;;;;;;;13.25;96.11;102128.53;5030988;28;20073;-65
2023/09/24 07:58:24;;;;;;;4.32;1.92;;;;;;;13.32;95.22;102126.81;5031190;28;20037;-65
2023/09/24 08:00:50;;;;;;;4.35;2.17;;;;;;;13.41;95.37;102137.25;5030378;28;20021;-64
2023/09/24 08:03:16;;;;;;;6.38;2.25;;;;;;;13.48;93.68;102132.03;5024841;28;20033;-65
2023/09/24 08:05:42;;;;;;;3.65;2.40;;;;;;;13.58;92.81;102127.72;5030760;28;20041;-65
2023/09/24 08:08:07;;;;;;;6.90;2.00;;;;;;;13.71;91.73;102126.84;5031249;28;20140;-65
2023/09/24 08:10:33;;;;;;;5.18;2.35;;;;;;;13.79;91.40;102119.94;5031001;28;20053;-64
2023/09/24 08:12:58;;;;;;;4.53;2.45;;;;;;;13.86;91.22;102113.03;5029189;28;20052;-65
2023/09/24 08:15:23;;;;;;;4.43;2.25;;;;;;;13.91;90.97;102111.28;5032406;28;20148;-64
2023/09/24 08:17:49;;;;;;;8.00;2.17;;;;;;;13.99;89.84;102115.59;5025191;28;20121;-64
2023/09/24 08:20:14;;;;;;;6.25;2.33;;;;;;;14.05;89.65;102106.94;5032785;28;20481;-64
2023/09/24 08:22:40;;;;;;;5.28;1.92;;;;;;;14.10;89.25;102113.84;5033901;28;20107;-64
2023/09/24 08:25:05;;;;;;;4.63;2.33;;;;;;;14.23;88.66;102114.69;5035071;28;20446;-63
2023/09/24 08:27:31;;;;;;;4.85;2.08;;;;;;;14.33;87.43;102113.81;5031641;28;20049;-64
2023/09/24 08:29:56;;;;;;;7.35;1.95;;;;;;;14.40;86.65;102118.16;5029072;28;20053;-65
2023/09/24 08:32:23;;;;;;;3.22;1.80;;;;;;;14.45;87.17;102126.84;5033032;28;20079;-64
2023/09/24 08:34:49;;;;;;;4.40;1.95;;;;;;;14.54;86.63;102112.94;5026276;28;20042;-64
2023/09/24 08:37:14;;;;;;;3.53;2.00;;;;;;;14.65;84.96;102100.75;5030813;28;20106;-64
2023/09/24 08:39:39;;;;;;;3.55;1.70;;;;;;;14.75;85.19;102107.63;5030163;28;20025;-64
2023/09/24 08:42:10;;;;;;;3.53;1.67;;;;;;;14.78;85.67;102107.59;5034532;28;20584;-65
2023/09/24 08:44:39;;;;;;;4.45;1.85;;;;;;;14.84;85.21;102107.59;5027203;28;20037;-65
2023/09/24 08:47:05;;;;;;;5.35;1.90;;;;;;;14.92;84.38;102097.16;5029372;28;20076;-64
2023/09/24 08:49:30;;;;;;;7.25;2.10;;;;;;;15.01;83.18;102081.47;5030195;28;20530;-63
2023/09/24 08:51:58;;;;;;;5.53;1.75;;;;;;;15.08;82.67;102085.75;5025309;28;20408;-63
2023/09/24 08:54:24;;;;;;;6.75;2.00;;;;;;;15.18;81.65;102084.84;5031844;28;20029;-63
2023/09/24 08:56:50;;;;;;;5.53;2.20;;;;;;;15.28;82.71;102090.88;5027128;28;20045;-64
2023/09/24 08:59:15;;;;;;;5.40;1.98;;;;;;;15.43;82.19;102085.56;5035461;28;20059;-63
2023/09/24 09:01:41;;;;;;;3.67;1.95;;;;;;;15.51;80.95;102083.75;5028211;28;20437;-63
2023/09/24 09:04:06;;;;;;;5.32;1.95;;;;;;;15.55;78.67;102051.59;5027433;28;20107;-63
2023/09/24 09:06:33;;;;;;;5.30;1.67;;;;;;;15.62;79.01;102074.09;5028021;28;20041;-64
2023/09/24 09:09:00;;;;;;;6.50;2.15;;;;;;;15.74;79.18;102064.47;5030975;28;20041;-64
2023/09/24 09:11:41;;;;;;;3.72;1.98;;;;;;;15.78;80.48;102087.91;5030355;28;20037;-64
2023/09/24 09:14:08;;;;;;;5.82;2.28;;;;;;;15.86;79.45;102073.03;5031560;28;20041;-64
2023/09/24 09:16:57;;;;;;;4.30;1.65;;;;;;;15.92;79.08;102063.44;5025396;28;20522;-64
2023/09/24 09:19:23;;;;;;;3.47;1.58;;;;;;;16.02;79.89;102072.91;5027800;28;20039;-63
2023/09/24 09:21:48;;;;;;;6.13;1.77;;;;;;;16.26;75.69;102027.44;5030014;28;20037;-63
2023/09/24 09:24:24;;;;;;;5.78;1.73;;;;;;;16.33;76.00;102034.28;5031524;28;20084;-64
2023/09/24 09:26:56;;;;;;;3.72;1.45;;;;;;;16.50;75.66;102036.72;5022121;28;20030;-64
2023/09/24 09:29:23;;;;;;;3.63;1.58;;;;;;;16.55;75.81;102035.75;5024690;28;20500;-65
2023/09/24 09:31:49;;;;;;;5.03;1.77;;;;;;;16.66;74.23;101999.94;5029679;28;20068;-64
2023/09/24 09:34:15;;;;;;;5.68;1.70;;;;;;;16.81;73.90;101993.66;5031171;28;20037;-64
2023/09/24 09:36:40;;;;;;;4.95;1.88;;;;;;;16.88;73.79;102003.16;5033468;28;20480;-64
2023/09/24 09:39:06;;;;;;;4.70;1.83;;;;;;;17.05;73.07;101992.44;5034105;28;20018;-64
2023/09/24 09:41:33;;;;;;;7.68;2.00;;;;;;;17.06;73.39;102004.63;5033137;28;20075;-64
2023/09/24 09:44:04;;;;;;;3.80;1.60;;;;;;;17.12;72.68;101988.84;5034755;28;20029;-64
2023/09/24 09:46:34;;;;;;;2.88;1.30;;;;;;;17.20;71.51;101968.69;5029148;28;20224;-64
2023/09/24 09:49:10;;;;;;;7.55;1.63;;;;;;;17.30;71.12;101962.41;5048657;28;20029;-63
2023/09/24 09:51:46;;;;;;;2.42;1.20;;;;;;;17.39;70.37;101954.44;5055680;28;20025;-64
2023/09/24 09:54:13;;;;;;;7.05;1.65;;;;;;;17.59;68.46;101925.28;5042223;28;20048;-63
2023/09/24 09:56:41;;;;;;;3.97;1.73;;;;;;;17.70;68.06;101926.81;5041175;28;20033;-64
2023/09/24 09:59:07;;;;;;;3.80;1.48;;;;;;;17.76;68.75;101938.91;5039307;28;20041;-64
2023/09/24 10:01:33;;;;;;;5.40;1.20;;;;;;;17.81;69.49;101955.41;5030501;28;20041;-63
2023/09/24 10:04:04;;;;;;;3.78;1.20;;;;;;;17.85;68.45;101933.53;5036496;28;20048;-63
2023/09/24 10:06:34;;;;;;;2.75;1.20;;;;;;;17.96;68.04;101937.66;5034129;28;20116;-64
2023/09/24 10:09:00;;;;;;;2.92;1.40;;;;;;;18.06;66.86;101906.06;5035786;28;20076;-63
2023/09/24 10:11:31;;;;;;;5.68;1.30;;;;;;;18.08;66.51;101906.91;5032396;28;20106;-63
2023/09/24 10:13:57;;;;;;;4.18;1.20;;;;;;;18.19;66.03;101895.34;5036271;28;20763;-65
2023/09/24 10:16:25;;;;;;;3.42;1.25;;;;;;;18.31;64.90;101881.09;5029094;28;20440;-64
2023/09/24 10:18:58;;;;;;;4.25;1.33;;;;;;;18.29;64.75;101880.25;5039539;28;20039;-63
2023/09/24 10:21:30;;;;;;;4.78;1.20;;;;;;;18.37;64.98;101901.91;5034609;28;20126;-64
2023/09/24 10:23:55;;;;;;;4.78;1.23;;;;;;;18.45;64.33;101879.03;5034369;28;20059;-64
2023/09/24 10:26:45;;;;;;;3.67;1.30;;;;;;;18.50;64.71;101874.53;5034251;28;20037;-63
2023/09/24 10:29:10;;;;;;;4.35;1.30;;;;;;;18.57;63.27;101867.41;5031272;28;20030;-65
2023/09/24 10:32:08;;;;;;;5.45;1.42;;;;;;;18.60;63.84;101876.06;5032758;28;20680;-64
2023/09/24 10:34:54;;;;;;;2.45;1.10;;;;;;;18.66;63.71;101877.66;5029518;28;20037;-65
2023/09/24 10:37:25;;;;;;;3.83;1.38;;;;;;;18.65;62.83;101853.22;5028586;28;20044;-61
2023/09/24 10:42:30;;;;;;;5.53;1.42;;;;;;;18.80;63.18;101863.34;5028004;28;20040;-61
2023/09/24 10:45:08;;;;;;;4.65;1.17;;;;;;;18.85;61.37;101826.59;5034876;28;20146;-64
2023/09/24 10:47:35;;;;;;;3.92;1.13;;;;;;;18.93;62.33;101838.59;5029770;28;20549;-62
2023/09/24 10:50:05;;;;;;;3.53;1.00;;;;;;;18.94;61.53;101823.69;5032437;28;20045;-62
2023/09/24 10:52:57;;;;;;;4.85;1.00;;;;;;;19.02;61.15;101819.16;5029376;28;20124;-62
2023/09/24 10:55:31;;;;;;;3.65;1.40;;;;;;;19.12;60.28;101801.41;5030245;28;20098;-62
2023/09/24 10:58:03;;;;;;;2.28;1.23;;;;;;;19.13;60.80;101817.09;5033301;28;20575;-62
2023/09/24 11:00:30;;;;;;;5.53;1.35;;;;;;;19.14;62.39;101845.03;5031046;28;20487;-62
2023/09/24 11:03:06;;;;;;;8.93;1.67;;;;;;;19.18;61.28;101823.06;5028148;28;20570;-62
2023/09/24 11:05:41;;;;;;;3.03;1.38;;;;;;;19.29;60.06;101807.91;5031849;28;20044;-62
2023/09/24 11:08:07;;;;;;;2.78;0.90;;;;;;;19.30;60.18;101803.50;5033388;28;20069;-62
2023/09/24 11:10:32;;;;;;;3.20;1.20;;;;;;;19.39;60.40;101814.59;5032888;28;20037;-62
2023/09/24 11:13:03;;;;;;;4.55;1.13;;;;;;;19.38;59.91;101805.03;5030638;28;20044;-62
2023/09/24 11:15:33;;;;;;;3.38;1.10;;;;;;;19.36;60.51;101821.69;5032658;28;20178;-62
2023/09/24 11:18:00;;;;;;;6.32;1.30;;;;;;;19.41;61.66;101851.28;5028289;28;20396;-62
2023/09/24 11:20:28;;;;;;;3.28;1.08;;;;;;;19.51;61.50;101827.38;5032413;28;20115;-62
2023/09/24 11:23:11;;;;;;;4.18;1.10;;;;;;;19.53;62.01;101832.59;5028875;28;20038;-68
2023/09/24 11:25:37;;;;;;;4.35;1.38;;;;;;;19.53;59.32;101783.59;5030303;28;20087;-63
2023/09/24 11:28:04;;;;;;;2.83;1.20;;;;;;;19.55;60.53;101813.28;5034088;28;20049;-63